< < Back
Terminal Aerodrome Forecast


Current Version              Previous Versions:   1  2  3  4  5  6  7  8  9  

Terminal Aerodrome Forecast

693
FTUS44 KMOB 220900 AAB
TAFPNS
TAF AMD
KPNS 220903Z 2209/2306 06005KT 1SM BR VCSH OVC002
      TEMPO 2209/2213 1/2SM FG BKN001
     FM221800 13008KT P6SM VCSH OVC010
     FM230000 18007KT 5SM BR VCSH OVC007=

Latest METAR

016
SAUS70 KWBC 230000 RRK
MTRPNS
METAR KPNS 222353Z 12005KT 8SM BKN060 BKN070 17/17 A2979 RMK AO2 SLP089
T01670167 10189 20161 53000


USA.gov is the U.S. government's official web portal to all federal, state and local government web resources and services.